createdAt,value
2023-05-12T00:01:36.230Z,99.90
2023-05-12T00:04:04.311Z,99.90
2023-05-12T00:06:33.746Z,99.90
2023-05-12T00:09:01.690Z,99.90
2023-05-12T00:11:29.669Z,99.90
2023-05-12T00:13:57.704Z,1.00
2023-05-12T00:16:25.799Z,1.00
2023-05-12T00:18:53.973Z,1.00
2023-05-12T00:21:22.030Z,99.90
2023-05-12T00:23:51.382Z,99.90
2023-05-12T00:26:19.394Z,99.90
2023-05-12T00:28:47.599Z,99.90
2023-05-12T00:31:16.100Z,99.90
2023-05-12T00:33:49.808Z,99.90
2023-05-12T00:36:17.794Z,1.00
2023-05-12T00:38:45.713Z,1.00
2023-05-12T00:41:15.211Z,1.00
2023-05-12T00:43:43.564Z,1.00
2023-05-12T00:46:11.666Z,33.50
2023-05-12T00:48:39.801Z,74.60
2023-05-12T00:51:07.975Z,99.90
2023-05-12T00:53:48.441Z,99.90
2023-05-12T00:56:19.920Z,99.90
2023-05-12T00:58:48.056Z,99.90
2023-05-12T01:01:16.339Z,99.90
2023-05-12T01:03:45.033Z,99.90
2023-05-12T01:06:17.704Z,99.90
2023-05-12T01:08:46.283Z,99.90
2023-05-12T01:11:16.533Z,99.90
2023-05-12T01:13:47.105Z,1.00
2023-05-12T01:16:18.370Z,1.00
2023-05-12T01:18:51.217Z,1.00
2023-05-12T01:21:20.333Z,1.00
2023-05-12T01:23:58.147Z,1.00
2023-05-12T01:26:29.767Z,1.00
2023-05-12T01:28:58.666Z,1.00
2023-05-12T01:31:27.267Z,1.00
2023-05-12T01:33:55.318Z,1.00
2023-05-12T01:36:23.326Z,13.10
2023-05-12T01:38:51.846Z,19.60
2023-05-12T01:41:19.848Z,33.30
2023-05-12T01:43:49.151Z,72.90
2023-05-12T01:46:17.127Z,90.40
2023-05-12T01:48:45.182Z,95.40
2023-05-12T01:51:15.943Z,99.90
2023-05-12T01:53:45.182Z,99.90
2023-05-12T01:56:13.600Z,99.90
2023-05-12T01:58:41.584Z,99.90
2023-05-12T02:01:10.933Z,99.90
2023-05-12T02:03:39.179Z,99.90
2023-05-12T02:06:07.474Z,99.90
2023-05-12T02:08:36.035Z,99.90
2023-05-12T02:11:07.222Z,99.90
2023-05-12T02:13:35.756Z,99.90
2023-05-12T02:16:03.840Z,99.90
2023-05-12T02:18:33.655Z,99.90
2023-05-12T02:21:01.627Z,99.90
2023-05-12T02:23:29.702Z,99.90
2023-05-12T02:25:57.652Z,99.90
2023-05-12T02:28:25.672Z,99.90
2023-05-12T02:30:54.373Z,99.90
2023-05-12T02:33:24.118Z,99.90
2023-05-12T02:35:56.162Z,99.90
2023-05-12T02:38:24.162Z,99.90
2023-05-12T02:40:52.171Z,99.90
2023-05-12T02:43:20.133Z,99.90
2023-05-12T02:45:48.233Z,99.90
2023-05-12T02:48:16.242Z,99.90
2023-05-12T02:50:47.087Z,99.90
2023-05-12T02:53:16.449Z,99.90
2023-05-12T02:55:44.480Z,99.90
2023-05-12T02:58:12.501Z,99.90
2023-05-12T03:00:40.472Z,99.90
2023-05-12T03:03:08.681Z,99.90
2023-05-12T03:05:36.997Z,99.90
2023-05-12T03:08:05.218Z,99.90
2023-05-12T03:10:34.575Z,99.90
2023-05-12T03:13:02.593Z,99.90
2023-05-12T03:15:30.559Z,99.90
2023-05-12T03:17:58.530Z,99.90
2023-05-12T03:20:26.532Z,99.90
2023-05-12T03:22:54.502Z,1.00
2023-05-12T03:25:25.324Z,1.00
2023-05-12T03:27:56.918Z,1.00
2023-05-12T03:30:24.857Z,1.00
2023-05-12T03:32:52.857Z,1.00
2023-05-12T03:35:20.947Z,1.00
2023-05-12T03:37:49.118Z,1.00
2023-05-12T03:40:18.706Z,1.00
2023-05-12T03:42:47.119Z,1.00
2023-05-12T03:45:16.518Z,1.00
2023-05-12T03:47:44.620Z,1.00
2023-05-12T03:50:12.803Z,1.00
2023-05-12T03:52:43.561Z,1.00
2023-05-12T03:55:13.873Z,1.00
2023-05-12T03:57:41.854Z,1.00
2023-05-12T04:00:11.586Z,1.00
2023-05-12T04:02:41.399Z,1.00
2023-05-12T04:05:10.206Z,1.00
2023-05-12T04:07:38.258Z,1.00
2023-05-12T04:10:07.284Z,1.00
2023-05-12T04:12:35.232Z,1.00
2023-05-12T04:15:07.882Z,1.00
2023-05-12T04:17:36.996Z,1.00
2023-05-12T04:20:07.777Z,1.00
2023-05-12T04:22:35.753Z,1.00
2023-05-12T04:25:03.990Z,1.00
2023-05-12T04:27:34.069Z,1.00
2023-05-12T04:30:02.057Z,1.00
2023-05-12T04:32:30.044Z,1.00
2023-05-12T04:34:58.091Z,1.00
2023-05-12T04:37:27.451Z,1.00
2023-05-12T04:39:55.494Z,1.00
2023-05-12T04:42:23.533Z,1.00
2023-05-12T04:44:51.454Z,1.00
2023-05-12T04:47:19.577Z,1.00
2023-05-12T04:49:47.550Z,1.00
2023-05-12T04:52:15.689Z,1.00
2023-05-12T04:54:44.996Z,1.00
2023-05-12T04:57:15.677Z,1.00
2023-05-12T04:59:46.085Z,1.00
2023-05-12T05:02:14.354Z,1.00
2023-05-12T05:04:42.702Z,99.90
2023-05-12T05:07:10.897Z,99.90
2023-05-12T05:09:39.121Z,99.90
2023-05-12T05:12:09.625Z,99.90
2023-05-12T05:14:37.607Z,99.90
2023-05-12T05:17:07.014Z,99.90
2023-05-12T05:19:47.734Z,99.90
2023-05-12T05:22:22.999Z,99.90
2023-05-12T05:24:51.176Z,99.90
2023-05-12T05:27:20.673Z,99.90
2023-05-12T05:29:49.305Z,99.90
2023-05-12T05:32:17.324Z,99.90
2023-05-12T05:34:45.462Z,99.90
2023-05-12T05:37:13.601Z,99.90
2023-05-12T05:39:41.573Z,81.90
2023-05-12T05:42:09.596Z,98.20
2023-05-12T05:44:39.134Z,99.90
2023-05-12T05:47:07.107Z,99.90
2023-05-12T05:49:36.670Z,99.90
2023-05-12T05:52:04.912Z,99.90
2023-05-12T05:54:32.910Z,74.00
2023-05-12T05:57:02.243Z,1.00
2023-05-12T05:59:30.189Z,99.90
2023-05-12T06:01:59.571Z,99.90
2023-05-12T06:04:27.932Z,6.50
2023-05-12T06:06:55.946Z,1.00
2023-05-12T06:09:23.944Z,1.00
2023-05-12T06:11:51.913Z,99.90
2023-05-12T06:14:19.931Z,99.90
2023-05-12T06:16:47.930Z,99.90
2023-05-12T06:19:17.240Z,73.20
2023-05-12T06:21:45.224Z,1.00
2023-05-12T06:24:13.264Z,99.90
2023-05-12T06:26:41.239Z,1.00
2023-05-12T06:29:09.220Z,1.00
2023-05-12T06:31:37.246Z,99.90
2023-05-12T06:34:05.217Z,99.90
2023-05-12T06:36:34.602Z,1.00
2023-05-12T06:39:05.316Z,34.00
2023-05-12T06:41:34.608Z,85.40
2023-05-12T06:44:06.218Z,99.90
2023-05-12T06:46:34.378Z,1.00
2023-05-12T06:49:02.361Z,1.00
2023-05-12T06:51:30.791Z,99.90
2023-05-12T06:54:00.133Z,18.60
2023-05-12T06:56:29.287Z,1.00
2023-05-12T06:59:00.952Z,1.00
2023-05-12T07:01:29.088Z,99.90
2023-05-12T07:03:57.481Z,99.90
2023-05-12T07:06:27.915Z,99.90
2023-05-12T07:08:56.368Z,99.90
2023-05-12T07:11:25.814Z,99.90
2023-05-12T07:13:54.062Z,4.70
2023-05-12T07:16:22.080Z,1.00
2023-05-12T07:18:50.337Z,1.00
2023-05-12T07:21:18.686Z,1.00
2023-05-12T07:23:46.746Z,1.00
2023-05-12T07:26:15.962Z,99.90
2023-05-12T07:28:45.301Z,99.90
2023-05-12T07:31:17.066Z,99.90
2023-05-12T07:33:45.160Z,99.90
2023-05-12T07:36:13.218Z,99.90
2023-05-12T07:38:41.249Z,99.90
2023-05-12T07:41:09.314Z,99.90
2023-05-12T07:43:37.244Z,99.90
2023-05-12T07:46:06.774Z,99.90
2023-05-12T07:48:39.519Z,99.90
2023-05-12T07:51:08.643Z,99.90
2023-05-12T07:53:36.715Z,99.90
2023-05-12T07:56:05.617Z,99.90
2023-05-12T07:58:36.264Z,99.90
2023-05-12T08:01:09.168Z,99.90
2023-05-12T08:03:37.310Z,99.90
2023-05-12T08:06:07.195Z,99.90
2023-05-12T08:08:36.558Z,99.10
2023-05-12T08:11:04.724Z,89.20
2023-05-12T08:13:32.682Z,85.50
2023-05-12T08:16:00.646Z,68.00
2023-05-12T08:18:29.976Z,13.00
2023-05-12T08:20:58.039Z,1.00
2023-05-12T08:23:26.029Z,1.00
2023-05-12T08:25:53.979Z,1.00
2023-05-12T08:28:22.006Z,1.00
2023-05-12T08:30:49.990Z,1.00
2023-05-12T08:33:18.062Z,1.00
2023-05-12T08:35:47.481Z,1.00
2023-05-12T08:38:15.801Z,1.00
2023-05-12T08:40:49.019Z,1.00
2023-05-12T08:43:26.945Z,1.00
2023-05-12T08:45:58.249Z,1.00
2023-05-12T08:48:28.191Z,1.00
2023-05-12T08:50:58.901Z,1.00
2023-05-12T08:53:28.849Z,1.00
2023-05-12T08:57:09.549Z,1.00
2023-05-12T08:58:47.166Z,1.00
2023-05-12T09:01:17.483Z,1.00
2023-05-12T09:03:46.048Z,99.90
2023-05-12T09:06:15.590Z,99.90
2023-05-12T09:08:43.764Z,99.90
2023-05-12T09:11:15.963Z,99.90
2023-05-12T09:14:02.772Z,99.90
2023-05-12T09:16:34.989Z,99.90
2023-05-12T09:19:06.732Z,99.90
2023-05-12T09:21:37.301Z,99.90
2023-05-12T09:24:06.974Z,99.90
2023-05-12T09:26:46.956Z,99.90
2023-05-12T09:29:31.787Z,99.90
2023-05-12T09:32:04.163Z,99.90
2023-05-12T09:34:35.505Z,99.90
2023-05-12T09:37:06.427Z,99.90
2023-05-12T09:39:36.037Z,99.90
2023-05-12T09:42:04.146Z,99.90
2023-05-12T09:44:35.895Z,99.90
2023-05-12T09:47:08.022Z,99.90
2023-05-12T09:49:36.366Z,99.90
2023-05-12T09:52:10.694Z,99.90
2023-05-12T09:54:41.098Z,99.90
2023-05-12T09:57:12.481Z,99.90
2023-05-12T09:59:43.901Z,99.90
2023-05-12T10:02:16.927Z,99.90
2023-05-12T10:04:48.661Z,99.90
2023-05-12T10:07:19.462Z,99.90
2023-05-12T10:09:49.494Z,99.90
2023-05-12T10:12:18.020Z,99.90
2023-05-12T10:14:47.288Z,99.90
2023-05-12T10:17:16.193Z,99.90
2023-05-12T10:19:44.763Z,99.90
2023-05-12T10:22:13.117Z,99.90
2023-05-12T10:24:43.036Z,99.90
2023-05-12T10:27:14.224Z,99.90
2023-05-12T10:29:42.532Z,99.90
2023-05-12T10:32:11.454Z,99.90
2023-05-12T10:34:40.557Z,99.90
2023-05-12T10:37:11.140Z,99.90
2023-05-12T10:39:50.402Z,99.90
2023-05-12T10:42:25.015Z,99.90
2023-05-12T10:44:54.118Z,99.90
2023-05-12T10:47:27.804Z,99.90
2023-05-12T10:49:58.867Z,99.90
2023-05-12T10:52:26.957Z,99.90
2023-05-12T10:55:03.399Z,99.90
2023-05-12T10:57:33.368Z,99.90
2023-05-12T11:00:03.524Z,99.90
2023-05-12T11:02:34.644Z,99.90
2023-05-12T11:05:05.120Z,99.90
2023-05-12T11:07:35.852Z,99.90
2023-05-12T11:10:10.702Z,99.90
2023-05-12T11:12:38.861Z,99.90
2023-05-12T11:15:08.165Z,99.90
2023-05-12T11:17:39.853Z,99.90
2023-05-12T11:20:10.650Z,99.90
2023-05-12T11:22:41.739Z,99.90
2023-05-12T11:25:15.609Z,99.90
2023-05-12T11:27:49.748Z,99.90
2023-05-12T11:30:18.302Z,99.90
2023-05-12T11:32:46.791Z,99.90
2023-05-12T11:35:16.537Z,99.90
2023-05-12T11:37:46.079Z,99.90
2023-05-12T11:40:18.088Z,99.90
2023-05-12T11:42:48.757Z,99.90
2023-05-12T11:45:24.766Z,99.90
2023-05-12T11:47:56.446Z,99.90
2023-05-12T11:50:26.793Z,99.90
2023-05-12T11:52:57.990Z,99.90
2023-05-12T11:55:27.323Z,99.90
2023-05-12T11:58:04.155Z,99.90
2023-05-12T12:00:36.380Z,99.90
2023-05-12T12:03:15.734Z,99.90
2023-05-12T12:05:45.795Z,99.90
2023-05-12T12:08:15.149Z,99.90
2023-05-12T12:10:47.127Z,99.90
2023-05-12T12:13:21.883Z,99.90
2023-05-12T12:15:50.159Z,99.90
2023-05-12T12:18:18.957Z,99.90
2023-05-12T12:20:48.326Z,99.90
2023-05-12T12:23:16.482Z,99.90
2023-05-12T12:25:45.814Z,99.90
2023-05-12T12:28:13.870Z,99.90
2023-05-12T12:30:42.981Z,99.90
2023-05-12T12:33:11.041Z,99.90
2023-05-12T12:35:39.221Z,99.90
2023-05-12T12:38:07.237Z,99.90
2023-05-12T12:40:37.654Z,99.90
2023-05-12T12:43:07.033Z,99.90
2023-05-12T12:45:36.249Z,99.90
2023-05-12T12:48:04.495Z,99.90
2023-05-12T12:50:32.518Z,99.90
2023-05-12T12:53:00.575Z,99.90
2023-05-12T12:55:28.544Z,99.90
2023-05-12T12:57:56.525Z,99.90
2023-05-12T13:00:26.903Z,99.90
2023-05-12T13:02:55.413Z,99.90
2023-05-12T13:05:23.584Z,99.90
2023-05-12T13:07:52.402Z,99.90
2023-05-12T13:10:20.342Z,99.90
2023-05-12T13:12:48.357Z,99.90
2023-05-12T13:15:18.638Z,99.90
2023-05-12T13:17:48.815Z,99.90
2023-05-12T13:20:17.227Z,99.90
2023-05-12T13:22:45.732Z,99.90
2023-05-12T13:25:16.352Z,99.90
2023-05-12T13:27:44.304Z,99.90
2023-05-12T13:30:13.906Z,99.90
2023-05-12T13:32:42.436Z,99.90
2023-05-12T13:35:14.148Z,99.90
2023-05-12T13:37:44.407Z,99.90
2023-05-12T13:40:13.151Z,99.90
2023-05-12T13:42:41.139Z,99.90
2023-05-12T13:45:10.493Z,99.90
2023-05-12T13:47:38.523Z,99.90
2023-05-12T13:50:07.725Z,99.90
2023-05-12T13:52:37.408Z,99.90
2023-05-12T13:55:05.905Z,99.90
2023-05-12T13:57:33.873Z,99.90
2023-05-12T14:00:02.000Z,99.90
2023-05-12T14:02:30.224Z,99.90
2023-05-12T14:04:58.541Z,99.90
2023-05-12T14:07:26.720Z,99.90
2023-05-12T14:09:56.620Z,99.90
2023-05-12T14:12:24.649Z,99.90
2023-05-12T14:14:52.696Z,99.90
2023-05-12T14:17:20.692Z,99.90
2023-05-12T14:19:48.726Z,99.90
2023-05-12T14:22:25.361Z,99.90
2023-05-12T14:24:56.539Z,99.90
2023-05-12T14:27:25.296Z,99.90
2023-05-12T14:29:54.388Z,99.90
2023-05-12T14:32:22.447Z,99.90
2023-05-12T14:34:50.412Z,99.90
2023-05-12T14:37:18.367Z,99.90
2023-05-12T14:39:46.333Z,99.90
2023-05-12T14:42:15.681Z,99.90
2023-05-12T14:44:43.656Z,99.90
2023-05-12T14:47:11.865Z,99.90
2023-05-12T14:49:39.876Z,99.90
2023-05-12T14:52:08.235Z,99.90
2023-05-12T14:54:36.303Z,99.90
2023-05-12T14:57:05.227Z,99.90
2023-05-12T14:59:34.563Z,99.90
2023-05-12T15:02:02.579Z,99.90
2023-05-12T15:04:30.699Z,99.90
2023-05-12T15:06:58.716Z,99.90
2023-05-12T15:09:26.671Z,99.90
2023-05-12T15:11:57.664Z,99.90
2023-05-12T15:14:25.867Z,99.90
2023-05-12T15:16:58.457Z,99.90
2023-05-12T15:19:27.504Z,99.90
2023-05-12T15:21:55.457Z,99.90
2023-05-12T15:24:23.432Z,99.90
2023-05-12T15:26:51.460Z,99.90
2023-05-12T15:29:19.495Z,99.90
2023-05-12T15:31:48.753Z,99.90
2023-05-12T15:34:18.201Z,99.90
2023-05-12T15:36:48.552Z,99.90
2023-05-12T15:39:16.909Z,99.90
2023-05-12T15:41:44.965Z,99.90
2023-05-12T15:44:13.365Z,99.90
2023-05-12T15:46:41.719Z,99.90
2023-05-12T15:49:09.991Z,99.90
2023-05-12T15:51:39.637Z,99.90
2023-05-12T15:54:09.338Z,99.90
2023-05-12T15:56:38.788Z,99.90
2023-05-12T15:59:07.382Z,99.90
2023-05-12T16:01:36.624Z,99.90
2023-05-12T16:04:04.799Z,99.90
2023-05-12T16:06:35.928Z,99.90
2023-05-12T16:09:05.410Z,99.90
2023-05-12T16:11:34.329Z,99.90
2023-05-12T16:14:05.245Z,99.90
2023-05-12T16:16:33.299Z,99.90
2023-05-12T16:19:01.298Z,99.90
2023-05-12T16:21:29.999Z,99.90
2023-05-12T16:23:57.945Z,99.90
2023-05-12T16:26:27.670Z,99.90
2023-05-12T16:28:58.646Z,99.90
2023-05-12T16:31:26.699Z,99.90
2023-05-12T16:33:56.557Z,99.90
2023-05-12T16:36:27.248Z,99.90
2023-05-12T16:38:55.499Z,99.90
2023-05-12T16:41:23.504Z,99.90
2023-05-12T16:43:56.471Z,99.90
2023-05-12T16:46:27.657Z,99.90
2023-05-12T16:48:55.667Z,99.90
2023-05-12T16:51:24.794Z,99.90
2023-05-12T16:53:52.785Z,99.90
2023-05-12T16:56:20.752Z,99.90
2023-05-12T16:58:48.692Z,99.90
2023-05-12T17:01:18.124Z,99.90
2023-05-12T17:03:46.257Z,99.90
2023-05-12T17:06:14.270Z,99.90
2023-05-12T17:08:44.598Z,99.90
2023-05-12T17:11:12.584Z,99.90
2023-05-12T17:13:40.546Z,99.90
2023-05-12T17:16:08.631Z,99.90
2023-05-12T17:21:11.454Z,99.90
2023-05-12T17:23:39.453Z,99.90
2023-05-12T17:26:07.426Z,99.90
2023-05-12T17:28:35.414Z,99.90
2023-05-12T17:31:04.622Z,99.90
2023-05-12T17:33:32.598Z,99.90
2023-05-12T17:36:12.437Z,99.90
2023-05-12T17:38:41.864Z,99.90
2023-05-12T17:41:09.854Z,99.90
2023-05-12T17:43:37.849Z,99.90
2023-05-12T17:46:07.668Z,99.90
2023-05-12T17:48:35.823Z,99.90
2023-05-12T17:51:07.309Z,99.90
2023-05-12T17:53:35.779Z,99.90
2023-05-12T17:56:04.135Z,99.90
2023-05-12T17:58:32.103Z,99.90
2023-05-12T18:01:00.410Z,99.90
2023-05-12T18:03:28.727Z,99.90
2023-05-12T18:05:56.889Z,99.90
2023-05-12T18:08:27.072Z,99.90
2023-05-12T18:10:55.090Z,99.90
2023-05-12T18:13:25.705Z,99.90
2023-05-12T18:15:53.726Z,99.90
2023-05-12T18:18:21.714Z,99.90
2023-05-12T18:20:49.720Z,99.90
2023-05-12T18:23:17.701Z,99.90
2023-05-12T18:25:47.227Z,99.90
2023-05-12T18:28:15.273Z,99.90
2023-05-12T18:30:43.289Z,99.90
2023-05-12T18:33:11.317Z,1.00
2023-05-12T18:35:39.558Z,1.00
2023-05-12T18:38:08.129Z,1.00
2023-05-12T18:40:36.155Z,1.00
2023-05-12T18:43:05.639Z,1.00
2023-05-12T18:45:35.709Z,1.00
2023-05-12T18:48:03.709Z,1.00
2023-05-12T18:50:32.008Z,1.00
2023-05-12T18:53:00.013Z,1.00
2023-05-12T18:55:28.018Z,1.00
2023-05-12T18:57:57.138Z,1.00
2023-05-12T19:00:31.946Z,1.00
2023-05-12T19:03:00.512Z,1.00
2023-05-12T19:05:28.775Z,1.00
2023-05-12T19:07:57.027Z,8.30
2023-05-12T19:10:28.406Z,26.70
2023-05-12T19:12:59.238Z,53.50
2023-05-12T19:15:27.388Z,78.10
2023-05-12T19:17:56.767Z,94.90
2023-05-12T19:20:28.136Z,99.90
2023-05-12T19:22:56.405Z,99.90
2023-05-12T19:25:26.624Z,99.90
2023-05-12T19:27:54.639Z,99.90
2023-05-12T19:30:22.578Z,99.90
2023-05-12T19:32:50.676Z,99.90
2023-05-12T19:35:22.480Z,99.90
2023-05-12T19:37:50.653Z,99.90
2023-05-12T19:40:19.738Z,99.90
2023-05-12T19:42:47.692Z,99.90
2023-05-12T19:45:15.936Z,99.90
2023-05-12T19:47:43.983Z,99.90
2023-05-12T19:50:12.292Z,99.90
2023-05-12T19:52:41.715Z,99.90
2023-05-12T19:55:10.487Z,99.90
2023-05-12T19:57:38.454Z,99.90
2023-05-12T20:00:08.101Z,99.90
2023-05-12T20:02:37.491Z,99.90
2023-05-12T20:05:06.363Z,99.90
2023-05-12T20:07:34.515Z,99.90
2023-05-12T20:10:04.357Z,99.90
2023-05-12T20:12:32.488Z,99.90
2023-05-12T20:15:00.465Z,99.90
2023-05-12T20:17:28.478Z,1.00
2023-05-12T20:19:57.021Z,1.00
2023-05-12T20:22:25.065Z,1.00
2023-05-12T20:24:54.552Z,1.00
2023-05-12T20:27:23.860Z,1.00
2023-05-12T20:29:52.271Z,1.00
2023-05-12T20:32:20.239Z,1.00
2023-05-12T20:34:48.238Z,1.00
2023-05-12T20:37:17.284Z,1.00
2023-05-12T20:39:48.340Z,1.00
2023-05-12T20:42:16.556Z,1.00
2023-05-12T20:44:45.958Z,1.00
2023-05-12T20:47:14.023Z,1.00
2023-05-12T20:49:44.512Z,1.00
2023-05-12T20:52:17.155Z,1.00
2023-05-12T20:54:46.138Z,10.40
2023-05-12T20:57:14.079Z,55.40
2023-05-12T20:59:42.789Z,65.70
2023-05-12T21:02:12.220Z,61.60
2023-05-12T21:04:40.261Z,86.80
2023-05-12T21:07:08.202Z,98.60
2023-05-12T21:09:36.163Z,99.90
2023-05-12T21:12:04.462Z,99.90
2023-05-12T21:14:37.707Z,99.90
2023-05-12T21:17:06.346Z,99.90
2023-05-12T21:19:36.226Z,99.90
2023-05-12T21:22:04.706Z,99.90
2023-05-12T21:24:33.115Z,99.90
2023-05-12T21:27:03.183Z,99.90
2023-05-12T21:29:31.981Z,99.90
2023-05-12T21:32:00.078Z,99.90
2023-05-12T21:34:28.353Z,99.90
2023-05-12T21:36:59.656Z,99.90
2023-05-12T21:39:27.643Z,99.90
2023-05-12T21:41:55.987Z,99.90
2023-05-12T21:44:26.952Z,99.90
2023-05-12T21:46:55.613Z,99.90
2023-05-12T21:49:23.562Z,99.90
2023-05-12T21:51:51.524Z,99.90
2023-05-12T21:54:20.857Z,1.00
2023-05-12T21:56:48.850Z,1.00
2023-05-12T21:59:16.973Z,1.00
2023-05-12T22:01:44.999Z,1.00
2023-05-12T22:04:13.006Z,44.70
2023-05-12T22:06:41.026Z,92.80
2023-05-12T22:09:09.578Z,99.90
2023-05-12T22:11:46.100Z,99.90
2023-05-12T22:14:14.060Z,99.90
2023-05-12T22:16:42.754Z,99.90
2023-05-12T22:19:11.115Z,99.90
2023-05-12T22:21:39.139Z,99.90
2023-05-12T22:24:07.759Z,99.90
2023-05-12T22:26:35.795Z,1.00
2023-05-12T22:29:07.418Z,1.00
2023-05-12T22:31:35.784Z,1.00
2023-05-12T22:34:06.499Z,1.00
2023-05-12T22:36:36.395Z,16.20
2023-05-12T22:39:04.593Z,78.40
2023-05-12T22:41:32.560Z,99.90
2023-05-12T22:44:00.589Z,99.90
2023-05-12T22:46:29.943Z,99.90
2023-05-12T22:48:57.934Z,99.90
2023-05-12T22:51:25.921Z,99.90
2023-05-12T22:53:53.876Z,1.00
2023-05-12T22:56:21.820Z,1.00
2023-05-12T22:58:49.758Z,1.00
2023-05-12T23:01:18.504Z,99.90
2023-05-12T23:03:48.042Z,99.90
2023-05-12T23:06:16.035Z,99.90
2023-05-12T23:08:44.015Z,99.90
2023-05-12T23:11:15.450Z,99.90
2023-05-12T23:13:43.429Z,99.90
2023-05-12T23:16:11.613Z,1.00
2023-05-12T23:18:39.572Z,1.00
2023-05-12T23:21:09.026Z,1.00
2023-05-12T23:23:36.982Z,1.00
2023-05-12T23:26:05.103Z,1.00
2023-05-12T23:28:33.119Z,99.90
2023-05-12T23:31:01.219Z,99.90
2023-05-12T23:33:29.249Z,99.90
2023-05-12T23:35:57.290Z,99.90
2023-05-12T23:38:26.603Z,99.90
2023-05-12T23:40:54.872Z,99.90
2023-05-12T23:43:24.777Z,99.90
2023-05-12T23:45:52.802Z,99.90
2023-05-12T23:48:20.758Z,1.00
2023-05-12T23:50:48.756Z,1.00
2023-05-12T23:53:16.936Z,59.70
2023-05-12T23:55:46.241Z,98.60
2023-05-12T23:58:14.252Z,99.90
